Time;durP1;ratioP1;P1;durP2;ratioP2;P2;SDS_P1;SDS_P2;PMS_P1;PMS_P2;Temp;Humidity;BMP_temperature;BMP_pressure;BME280_temperature;BME280_humidity;BME280_pressure;Samples;Min_cycle;Max_cycle;Signal;HPM_P1;HPM_P2
2022/10/31 00:01:57;;;;;;;12.65;7.47;;;19.80;68.10;;;;;;5049336;22;20230;-67
2022/10/31 00:04:25;;;;;;;10.48;6.88;;;19.80;68.10;;;;;;5034661;28;20196;-67
2022/10/31 00:06:52;;;;;;;11.45;7.55;;;19.80;67.80;;;;;;5034636;28;20199;-67
2022/10/31 00:09:20;;;;;;;12.15;7.60;;;19.80;68.10;;;;;;5034853;28;20203;-66
2022/10/31 00:11:47;;;;;;;12.75;7.25;;;19.70;67.60;;;;;;5035611;28;20203;-66
2022/10/31 00:14:14;;;;;;;10.85;7.85;;;19.70;67.70;;;;;;5034396;28;20650;-66
2022/10/31 00:16:41;;;;;;;12.55;7.20;;;19.70;67.80;;;;;;5034275;28;20303;-66
2022/10/31 00:19:08;;;;;;;9.98;6.63;;;19.70;67.90;;;;;;5034247;28;20224;-66
2022/10/31 00:21:36;;;;;;;10.40;6.88;;;19.70;68.10;;;;;;5048903;22;20285;-68
2022/10/31 00:24:03;;;;;;;11.98;6.97;;;19.70;67.70;;;;;;5034524;28;20208;-68
2022/10/31 00:26:32;;;;;;;10.05;6.68;;;19.60;67.60;;;;;;5034577;28;20224;-68
2022/10/31 00:28:59;;;;;;;10.02;6.47;;;19.60;67.70;;;;;;5034706;28;20228;-68
2022/10/31 00:31:27;;;;;;;11.00;6.68;;;19.60;67.60;;;;;;5034570;28;20188;-65
2022/10/31 00:33:54;;;;;;;10.57;6.75;;;19.60;67.50;;;;;;5018180;28;20219;-65
2022/10/31 00:36:21;;;;;;;9.20;6.40;;;19.60;67.70;;;;;;5035175;28;20211;-65
2022/10/31 00:38:49;;;;;;;9.63;6.65;;;19.60;67.70;;;;;;5035678;28;20761;-66
2022/10/31 00:41:17;;;;;;;8.52;6.47;;;19.60;67.80;;;;;;5034548;28;20292;-66
2022/10/31 00:43:45;;;;;;;9.50;6.22;;;19.60;67.90;;;;;;5035391;28;20712;-66
2022/10/31 00:46:13;;;;;;;8.98;5.90;;;19.50;67.60;;;;;;5034873;28;20291;-66
2022/10/31 00:48:41;;;;;;;9.60;6.40;;;19.60;67.90;;;;;;5035369;28;20212;-66
2022/10/31 00:51:09;;;;;;;9.00;6.18;;;19.50;67.50;;;;;;5033991;28;20283;-66
2022/10/31 00:53:36;;;;;;;9.25;6.20;;;19.50;67.70;;;;;;5034003;28;20192;-66
2022/10/31 00:56:03;;;;;;;9.45;6.25;;;19.50;68.10;;;;;;5039904;22;20317;-67
2022/10/31 00:58:31;;;;;;;9.55;6.22;;;19.50;68.00;;;;;;5030330;28;20224;-67
2022/10/31 01:00:59;;;;;;;11.27;6.43;;;19.50;67.90;;;;;;5013154;28;20208;-67
2022/10/31 01:03:27;;;;;;;8.77;6.00;;;19.40;67.60;;;;;;5013740;28;20219;-67
2022/10/31 01:06:01;;;;;;;11.07;6.57;;;19.50;67.80;;;;;;5013924;28;20212;-67
2022/10/31 01:08:28;;;;;;;7.35;6.00;;;19.40;67.70;;;;;;5013692;28;20567;-67
2022/10/31 01:11:03;;;;;;;9.93;6.28;;;19.40;67.70;;;;;;4997468;28;20665;-67
2022/10/31 01:13:30;;;;;;;8.40;6.35;;;19.40;67.60;;;;;;5013599;28;20192;-67
2022/10/31 01:15:58;;;;;;;8.07;6.30;;;19.40;67.90;;;;;;5013547;28;20655;-67
2022/10/31 01:18:26;;;;;;;9.85;6.03;;;19.40;67.70;;;;;;5013497;28;20221;-67
2022/10/31 01:21:03;;;;;;;8.05;6.05;;;19.40;67.70;;;;;;5013511;28;20283;-67
2022/10/31 01:23:31;;;;;;;8.00;5.60;;;19.40;67.60;;;;;;5013747;28;20215;-67
2022/10/31 01:26:03;;;;;;;8.00;6.00;;;19.40;67.40;;;;;;5013608;28;20205;-67
2022/10/31 01:28:30;;;;;;;9.23;5.82;;;19.40;67.50;;;;;;5014790;28;20556;-67
2022/10/31 01:31:02;;;;;;;9.02;6.18;;;19.40;67.70;;;;;;5013838;28;20201;-67
2022/10/31 01:33:29;;;;;;;9.40;5.93;;;19.40;67.40;;;;;;5014104;28;20610;-67
2022/10/31 01:35:57;;;;;;;6.70;5.53;;;19.30;67.60;;;;;;5014387;28;20196;-67
2022/10/31 01:38:24;;;;;;;8.63;5.80;;;19.30;67.50;;;;;;5015140;28;20224;-67
2022/10/31 01:40:51;;;;;;;8.30;6.25;;;19.30;67.60;;;;;;5015432;28;20238;-67
2022/10/31 01:43:18;;;;;;;7.93;5.53;;;19.30;67.70;;;;;;5014235;28;20213;-68
2022/10/31 01:45:45;;;;;;;7.90;5.88;;;19.30;67.70;;;;;;5013909;28;20639;-68
2022/10/31 01:48:16;;;;;;;7.35;5.57;;;19.20;67.80;;;;;;5013390;28;20219;-67
2022/10/31 01:50:44;;;;;;;8.18;5.47;;;19.30;67.60;;;;;;5013446;28;20664;-67
2022/10/31 01:53:10;;;;;;;6.20;5.22;;;19.30;67.50;;;;;;5014845;28;20189;-67
2022/10/31 01:55:39;;;;;;;7.82;5.93;;;19.30;67.60;;;;;;5013406;28;20663;-67
2022/10/31 01:58:08;;;;;;;7.97;5.82;;;19.20;68.10;;;;;;5013317;28;20223;-67
2022/10/31 02:00:35;;;;;;;7.20;5.80;;;19.20;67.40;;;;;;5013516;28;20197;-67
2022/10/31 02:03:02;;;;;;;6.63;5.13;;;19.30;67.40;;;;;;5013433;28;20243;-67
2022/10/31 02:05:31;;;;;;;6.65;5.60;;;19.30;67.40;;;;;;5013339;28;20197;-67
2022/10/31 02:10:29;;;;;;;7.32;5.13;;;19.30;67.30;;;;;;5015558;28;20211;-68
2022/10/31 02:12:58;;;;;;;8.93;5.75;;;19.30;67.30;;;;;;5015566;28;20220;-68
2022/10/31 02:15:25;;;;;;;7.55;5.63;;;19.30;67.40;;;;;;5017139;28;20204;-67
2022/10/31 02:17:53;;;;;;;8.60;5.68;;;19.20;66.90;;;;;;5023054;28;20231;-67
2022/10/31 02:20:21;;;;;;;6.15;5.45;;;19.30;67.50;;;;;;5034038;28;20200;-67
2022/10/31 02:23:25;;;;;;;8.45;5.80;;;19.30;67.20;;;;;;5033019;28;20287;-67
2022/10/31 02:26:02;;;;;;;6.55;4.93;;;19.20;66.90;;;;;;4992785;28;20238;-67
2022/10/31 02:28:37;;;;;;;6.00;5.07;;;19.20;67.10;;;;;;5033542;28;20270;-67
2022/10/31 02:31:14;;;;;;;8.88;5.55;;;19.20;67.10;;;;;;5033820;28;20191;-67
2022/10/31 02:33:43;;;;;;;7.00;4.97;;;19.20;67.00;;;;;;5032970;28;20665;-67
2022/10/31 02:36:12;;;;;;;7.68;5.63;;;19.20;67.30;;;;;;5033112;28;20203;-67
2022/10/31 02:38:45;;;;;;;7.03;5.20;;;19.20;67.20;;;;;;5032973;28;20591;-67
2022/10/31 02:41:20;;;;;;;8.10;5.35;;;19.20;67.00;;;;;;5017137;28;20361;-67
2022/10/31 02:43:58;;;;;;;9.15;5.55;;;19.10;66.90;;;;;;5032300;28;20215;-68
2022/10/31 02:46:33;;;;;;;8.75;5.50;;;19.20;67.30;;;;;;5032430;28;20219;-68
2022/10/31 02:49:02;;;;;;;8.70;5.05;;;19.10;66.80;;;;;;5033097;28;20578;-68
2022/10/31 02:51:29;;;;;;;7.80;5.15;;;19.20;66.90;;;;;;5033490;28;20196;-68
2022/10/31 02:53:57;;;;;;;8.35;5.35;;;19.10;67.00;;;;;;5032880;28;20188;-68
2022/10/31 02:56:24;;;;;;;7.20;4.82;;;19.10;67.00;;;;;;5032376;28;20196;-68
2022/10/31 02:58:52;;;;;;;7.03;4.43;;;19.10;66.70;;;;;;5032393;28;20224;-68
2022/10/31 03:01:42;;;;;;;9.48;5.30;;;19.10;66.90;;;;;;5033413;28;20197;-66
2022/10/31 03:04:23;;;;;;;6.53;5.00;;;19.10;66.60;;;;;;5033123;28;20311;-66
2022/10/31 03:06:53;;;;;;;6.63;4.82;;;19.10;66.80;;;;;;5016075;28;20204;-66
2022/10/31 03:09:24;;;;;;;5.95;4.85;;;19.10;66.90;;;;;;5032503;28;20212;-66
2022/10/31 03:11:58;;;;;;;5.97;4.93;;;19.00;67.00;;;;;;5032312;28;20188;-66
2022/10/31 03:14:29;;;;;;;6.30;4.85;;;19.00;66.60;;;;;;5032497;28;20295;-66
2022/10/31 03:17:00;;;;;;;6.90;4.97;;;19.10;66.80;;;;;;5032544;28;20202;-66
2022/10/31 03:19:30;;;;;;;6.88;5.20;;;19.10;66.80;;;;;;5034365;28;20242;-66
2022/10/31 03:21:59;;;;;;;6.97;4.53;;;19.10;66.90;;;;;;5033157;28;20207;-66
2022/10/31 03:24:28;;;;;;;7.55;5.35;;;19.00;66.50;;;;;;5033830;28;20287;-65
2022/10/31 03:26:56;;;;;;;5.72;5.13;;;19.00;66.80;;;;;;5019505;28;20200;-65
2022/10/31 03:29:26;;;;;;;6.90;5.05;;;19.00;66.70;;;;;;5035807;28;20196;-65
2022/10/31 03:31:55;;;;;;;6.85;4.45;;;19.00;66.60;;;;;;5036179;28;20694;-65
2022/10/31 03:34:25;;;;;;;7.22;5.18;;;19.00;66.50;;;;;;5036044;28;20632;-65
2022/10/31 03:36:53;;;;;;;6.38;4.65;;;19.00;66.70;;;;;;5036142;28;20203;-67
2022/10/31 03:39:21;;;;;;;6.97;4.90;;;19.00;66.50;;;;;;5035619;28;20569;-67
2022/10/31 03:41:50;;;;;;;5.47;4.68;;;19.00;66.70;;;;;;5035835;28;20251;-67
2022/10/31 03:44:18;;;;;;;8.02;4.72;;;19.00;66.70;;;;;;5036232;28;20212;-67
2022/10/31 03:46:51;;;;;;;6.47;4.53;;;19.00;66.40;;;;;;5035650;28;20207;-67
2022/10/31 03:49:18;;;;;;;5.95;4.38;;;19.00;66.70;;;;;;5035710;28;20219;-67
2022/10/31 03:51:48;;;;;;;6.00;5.05;;;18.90;66.60;;;;;;5019006;28;20203;-67
2022/10/31 03:54:20;;;;;;;5.20;4.70;;;18.90;66.30;;;;;;5036621;28;20194;-67
2022/10/31 03:56:50;;;;;;;6.93;4.45;;;18.90;66.40;;;;;;5035774;28;20662;-67
2022/10/31 03:59:19;;;;;;;6.18;4.90;;;18.90;66.30;;;;;;5035715;28;20216;-67
2022/10/31 04:01:49;;;;;;;5.55;4.43;;;18.90;66.10;;;;;;5035222;28;20192;-67
2022/10/31 04:04:16;;;;;;;5.50;4.57;;;18.90;66.30;;;;;;5035443;28;20714;-67
2022/10/31 04:06:43;;;;;;;5.82;4.32;;;18.90;66.20;;;;;;5035597;28;20200;-67
2022/10/31 04:09:12;;;;;;;5.82;4.55;;;18.90;66.00;;;;;;5034872;28;20258;-67
2022/10/31 04:11:43;;;;;;;5.13;4.57;;;18.80;66.00;;;;;;5039270;28;20200;-67
2022/10/31 04:14:33;;;;;;;5.25;4.22;;;18.90;66.10;;;;;;5035187;28;20196;-67
2022/10/31 04:17:00;;;;;;;4.82;4.28;;;18.80;66.20;;;;;;5034578;28;20709;-67
2022/10/31 04:19:34;;;;;;;6.20;4.70;;;18.90;66.20;;;;;;5036092;28;20640;-66
2022/10/31 04:22:02;;;;;;;5.72;4.55;;;18.80;66.80;;;;;;5034948;28;20231;-66
2022/10/31 04:24:31;;;;;;;5.35;4.22;;;18.90;66.70;;;;;;5034640;28;20224;-66
2022/10/31 04:26:59;;;;;;;6.40;4.60;;;18.90;67.00;;;;;;5034387;28;20224;-66
2022/10/31 04:29:26;;;;;;;7.20;4.53;;;18.90;67.10;;;;;;5034917;28;20203;-66
2022/10/31 04:31:54;;;;;;;6.72;4.38;;;18.90;67.30;;;;;;5034505;28;20200;-67
2022/10/31 04:34:21;;;;;;;5.55;4.50;;;19.00;67.40;;;;;;5018440;28;20203;-67
2022/10/31 04:36:50;;;;;;;4.22;3.78;;;19.00;67.10;;;;;;5033509;28;20196;-67
2022/10/31 04:39:18;;;;;;;5.72;4.28;;;19.10;66.90;;;;;;5034388;28;20218;-67
2022/10/31 04:41:52;;;;;;;6.82;4.68;;;19.10;66.30;;;;;;5034616;28;20658;-67
2022/10/31 04:44:19;;;;;;;7.65;4.53;;;19.20;66.50;;;;;;5034066;28;20217;-67
2022/10/31 04:46:50;;;;;;;6.03;3.92;;;19.20;65.90;;;;;;5018108;28;20692;-67
2022/10/31 04:49:17;;;;;;;4.78;4.28;;;19.20;65.80;;;;;;5034919;28;20210;-67
2022/10/31 04:51:44;;;;;;;5.88;4.18;;;19.20;65.70;;;;;;5034119;28;20684;-67
2022/10/31 04:54:12;;;;;;;6.50;4.10;;;19.20;65.70;;;;;;5018106;28;20654;-67
2022/10/31 04:57:03;;;;;;;5.38;4.28;;;19.20;65.60;;;;;;5035080;28;20196;-67
2022/10/31 04:59:31;;;;;;;5.28;4.32;;;19.20;65.40;;;;;;5034727;28;20203;-67
2022/10/31 05:02:00;;;;;;;5.03;4.43;;;19.20;65.30;;;;;;5033882;28;20246;-67
2022/10/31 05:04:43;;;;;;;6.32;4.30;;;19.20;65.40;;;;;;5033599;28;20220;-67
2022/10/31 05:07:11;;;;;;;5.70;4.60;;;19.20;65.10;;;;;;5154388;22;20225;-68
2022/10/31 05:09:38;;;;;;;4.90;4.40;;;19.20;64.80;;;;;;5053879;28;20187;-68
2022/10/31 05:12:07;;;;;;;6.32;3.95;;;19.20;65.00;;;;;;5053533;28;20683;-69
2022/10/31 05:14:52;;;;;;;4.70;4.13;;;19.10;64.40;;;;;;5055160;28;20253;-69
2022/10/31 05:17:45;;;;;;;6.45;4.00;;;19.10;64.90;;;;;;5054184;28;20600;-70
2022/10/31 05:20:31;;;;;;;5.93;4.10;;;19.10;64.30;;;;;;5054922;28;20553;-69
2022/10/31 05:23:28;;;;;;;6.07;4.20;;;19.10;64.70;;;;;;5045508;28;20278;-69
2022/10/31 05:25:54;;;;;;;5.25;4.50;;;19.10;66.00;;;;;;5053105;28;20241;-69
2022/10/31 05:28:24;;;;;;;5.15;3.83;;;19.00;64.70;;;;;;5053097;28;20243;-69
2022/10/31 05:30:51;;;;;;;4.13;3.72;;;19.00;65.20;;;;;;5052826;28;20231;-69
2022/10/31 05:33:18;;;;;;;6.57;4.03;;;19.00;65.00;;;;;;5052933;28;20203;-69
2022/10/31 05:36:04;;;;;;;4.53;4.03;;;19.10;65.30;;;;;;5054528;28;20191;-69
2022/10/31 05:38:42;;;;;;;6.32;4.15;;;19.00;65.00;;;;;;5052750;28;20583;-69
2022/10/31 05:41:21;;;;;;;4.60;3.80;;;19.10;65.10;;;;;;5053331;28;20594;-69
2022/10/31 05:43:50;;;;;;;5.90;4.00;;;19.00;65.10;;;;;;5052698;28;20191;-69
2022/10/31 05:46:21;;;;;;;4.13;3.70;;;19.00;65.20;;;;;;5053197;28;20187;-68
2022/10/31 05:49:08;;;;;;;6.28;4.03;;;19.10;65.30;;;;;;5053591;28;20628;-68
2022/10/31 05:51:54;;;;;;;4.43;3.80;;;19.10;65.90;;;;;;5054036;28;20205;-69
2022/10/31 05:54:27;;;;;;;6.75;3.95;;;19.00;65.70;;;;;;5052372;28;20183;-69
2022/10/31 05:56:54;;;;;;;5.90;4.20;;;19.00;65.60;;;;;;5052460;28;20207;-69
2022/10/31 05:59:23;;;;;;;5.25;4.05;;;19.00;65.70;;;;;;5052579;28;20191;-69
2022/10/31 06:01:50;;;;;;;4.55;3.58;;;19.00;67.10;;;;;;5052676;28;20195;-69
2022/10/31 06:04:33;;;;;;;5.03;3.80;;;19.10;65.90;;;;;;5052617;28;20226;-69
2022/10/31 06:07:00;;;;;;;5.85;3.75;;;19.00;65.30;;;;;;5052345;28;20563;-69
2022/10/31 06:09:28;;;;;;;6.75;3.60;;;19.00;65.10;;;;;;5052501;28;20657;-69
2022/10/31 06:11:55;;;;;;;4.78;3.60;;;19.00;66.20;;;;;;5053626;28;20252;-69
2022/10/31 06:14:24;;;;;;;5.20;3.75;;;19.00;66.30;;;;;;5054436;28;20203;-70
2022/10/31 06:16:55;;;;;;;4.82;3.58;;;19.00;66.00;;;;;;5037490;28;20187;-69
2022/10/31 06:19:41;;;;;;;5.82;3.83;;;19.00;66.20;;;;;;5054342;28;20268;-69
2022/10/31 06:22:11;;;;;;;4.30;3.80;;;19.00;65.80;;;;;;5052876;28;20201;-69
2022/10/31 06:24:38;;;;;;;4.22;3.60;;;19.00;65.90;;;;;;5052626;28;20211;-69
2022/10/31 06:27:22;;;;;;;6.10;3.80;;;19.00;66.00;;;;;;5053189;28;20218;-69
2022/10/31 06:29:50;;;;;;;3.97;3.60;;;19.00;65.70;;;;;;5052906;28;20245;-69
2022/10/31 06:32:28;;;;;;;4.78;3.50;;;19.00;65.50;;;;;;5105905;22;20231;-68
2022/10/31 06:34:55;;;;;;;5.65;4.00;;;19.00;64.80;;;;;;5093115;22;20212;-68
2022/10/31 06:37:23;;;;;;;4.65;3.55;;;19.00;65.00;;;;;;5090545;22;20242;-54
2022/10/31 06:39:53;;;;;;;4.00;3.60;;;19.00;64.20;;;;;;5032157;28;20243;-54
2022/10/31 06:42:20;;;;;;;5.18;3.50;;;19.00;64.30;;;;;;5032393;28;20200;-54
2022/10/31 06:44:49;;;;;;;4.30;3.90;;;19.00;64.10;;;;;;5033220;28;20299;-54
2022/10/31 06:47:35;;;;;;;3.80;3.40;;;19.00;64.00;;;;;;5033609;28;20183;-53
2022/10/31 06:50:07;;;;;;;3.80;3.50;;;19.00;63.80;;;;;;5032131;28;20701;-53
2022/10/31 06:52:35;;;;;;;4.88;3.50;;;19.10;63.70;;;;;;5032264;28;20577;-54
2022/10/31 06:55:03;;;;;;;5.38;4.00;;;19.10;63.20;;;;;;5031947;28;20662;-54
2022/10/31 06:57:31;;;;;;;3.75;3.40;;;19.10;63.20;;;;;;5090319;22;20206;-70
2022/10/31 06:59:59;;;;;;;4.00;3.60;;;19.10;63.20;;;;;;5035464;28;20214;-70
2022/10/31 07:02:56;;;;;;;3.97;3.50;;;19.20;63.30;;;;;;5073178;22;20255;-65
2022/10/31 07:05:23;;;;;;;5.10;3.40;;;19.20;63.00;;;;;;5038592;28;20216;-65
2022/10/31 07:07:53;;;;;;;4.13;3.50;;;19.20;63.40;;;;;;5036974;28;20220;-65
2022/10/31 07:10:21;;;;;;;4.47;3.53;;;19.20;62.90;;;;;;5037121;28;20215;-67
2022/10/31 07:12:55;;;;;;;3.90;3.50;;;19.20;62.90;;;;;;5037228;28;20188;-67
2022/10/31 07:15:24;;;;;;;3.58;3.10;;;19.20;63.10;;;;;;5137108;22;20239;-70
2022/10/31 07:17:53;;;;;;;4.63;3.50;;;19.30;63.40;;;;;;5059643;28;20242;-70
2022/10/31 07:20:20;;;;;;;3.97;3.17;;;19.20;62.90;;;;;;5049519;28;20207;-70
2022/10/31 07:22:47;;;;;;;3.60;3.30;;;19.30;63.10;;;;;;5036772;28;20192;-70
2022/10/31 07:25:15;;;;;;;3.90;3.40;;;19.30;63.20;;;;;;5036590;28;20218;-69
2022/10/31 07:28:04;;;;;;;3.85;3.30;;;19.30;63.00;;;;;;5051513;22;20228;-65
2022/10/31 07:30:33;;;;;;;3.88;3.30;;;19.30;63.10;;;;;;5068272;22;20602;-68
2022/10/31 07:33:00;;;;;;;5.43;3.40;;;19.40;63.00;;;;;;5060319;22;20231;-67
2022/10/31 07:35:47;;;;;;;5.32;3.65;;;19.40;63.00;;;;;;5035891;28;20275;-67
2022/10/31 07:38:16;;;;;;;4.75;3.33;;;19.40;62.90;;;;;;5035929;28;20231;-67
2022/10/31 07:40:44;;;;;;;4.18;3.45;;;19.40;62.80;;;;;;5035679;28;20659;-67
2022/10/31 07:43:12;;;;;;;4.10;3.38;;;19.50;62.80;;;;;;5035608;28;20569;-67
2022/10/31 07:46:15;;;;;;;3.83;3.35;;;19.40;62.70;;;;;;5035857;28;20222;-67
2022/10/31 07:49:02;;;;;;;4.78;3.40;;;19.40;62.60;;;;;;5076542;22;20295;-69
2022/10/31 07:51:48;;;;;;;3.67;3.35;;;19.50;63.30;;;;;;5036778;28;20247;-69
2022/10/31 07:54:24;;;;;;;3.50;3.20;;;19.50;63.00;;;;;;5037004;28;20265;-69
2022/10/31 07:56:51;;;;;;;4.43;3.40;;;19.50;62.90;;;;;;5035443;28;20200;-69
2022/10/31 07:59:18;;;;;;;3.92;3.47;;;19.60;62.90;;;;;;5100880;22;20220;-67
2022/10/31 08:04:23;;;;;;;5.13;3.25;;;19.60;63.50;;;;;;5178676;22;20993;-70
2022/10/31 08:07:08;;;;;;;3.72;3.33;;;19.70;62.60;;;;;;5136355;22;20221;-69
2022/10/31 08:09:42;;;;;;;3.63;3.28;;;19.80;62.60;;;;;;5182199;22;20289;-70
2022/10/31 08:12:19;;;;;;;4.53;3.25;;;19.80;62.70;;;;;;5062158;22;20220;-68
2022/10/31 08:14:46;;;;;;;3.50;3.20;;;19.90;62.60;;;;;;5034944;28;20220;-66
2022/10/31 08:17:15;;;;;;;3.58;3.22;;;20.00;62.40;;;;;;5035376;28;20274;-66
2022/10/31 08:19:52;;;;;;;6.38;3.78;;;20.10;62.10;;;;;;5034804;28;20192;-66
2022/10/31 08:22:23;;;;;;;5.97;3.58;;;20.10;61.90;;;;;;5035237;28;20207;-66
2022/10/31 08:24:50;;;;;;;5.00;3.30;;;20.20;61.60;;;;;;5018486;28;20235;-66
2022/10/31 08:27:17;;;;;;;3.60;3.30;;;20.20;61.50;;;;;;5034944;28;20262;-66
2022/10/31 08:29:45;;;;;;;5.03;3.42;;;20.20;61.50;;;;;;5018233;28;20242;-66
2022/10/31 08:32:12;;;;;;;4.00;3.45;;;20.30;61.30;;;;;;5034335;28;20713;-66
2022/10/31 08:34:59;;;;;;;3.65;3.35;;;20.30;61.10;;;;;;5036365;28;20296;-66
2022/10/31 08:37:45;;;;;;;4.30;3.55;;;20.30;60.90;;;;;;5035793;28;20635;-66
2022/10/31 08:40:13;;;;;;;4.35;3.30;;;20.30;60.60;;;;;;5035518;28;20200;-66
2022/10/31 08:42:41;;;;;;;4.40;3.30;;;20.40;60.60;;;;;;5034207;28;20246;-66
2022/10/31 08:45:08;;;;;;;4.00;3.25;;;20.40;60.40;;;;;;5034806;28;20242;-66
2022/10/31 08:47:36;;;;;;;3.65;3.25;;;20.40;60.40;;;;;;5034451;28;20303;-66
2022/10/31 08:50:07;;;;;;;3.92;3.38;;;20.50;60.20;;;;;;5034348;28;20196;-66
2022/10/31 08:52:35;;;;;;;4.40;3.92;;;20.50;60.10;;;;;;5034318;28;20288;-66
2022/10/31 08:55:03;;;;;;;4.47;3.47;;;20.50;60.10;;;;;;5034375;28;20568;-66
2022/10/31 08:57:54;;;;;;;3.72;3.40;;;20.50;60.00;;;;;;5035700;28;20354;-66
2022/10/31 09:00:22;;;;;;;3.53;3.22;;;20.60;59.90;;;;;;5035283;28;20200;-66
2022/10/31 09:03:03;;;;;;;4.25;3.60;;;20.60;59.90;;;;;;5035657;28;20176;-66
2022/10/31 09:05:34;;;;;;;3.60;3.22;;;20.60;59.90;;;;;;5036327;28;20231;-66
2022/10/31 09:08:01;;;;;;;3.38;3.08;;;20.60;60.00;;;;;;5035499;28;20693;-66
2022/10/31 09:10:30;;;;;;;3.53;3.20;;;20.70;59.90;;;;;;5034935;28;20291;-66
2022/10/31 09:18:22;;;;;;;4.10;3.30;;;20.70;60.00;;;;;;5108382;22;20326;-69
2022/10/31 09:21:00;;;;;;;3.42;3.13;;;20.80;59.90;;;;;;5033859;28;20667;-69
2022/10/31 09:23:30;;;;;;;4.60;3.47;;;20.80;59.70;;;;;;5047319;22;20258;-67
2022/10/31 09:25:56;;;;;;;5.20;3.53;;;20.80;59.60;;;;;;5048206;22;20228;-69
2022/10/31 09:28:54;;;;;;;4.13;3.30;;;20.80;59.50;;;;;;4350221;22;20723;-63
2022/10/31 09:31:21;;;;;;;3.45;3.05;;;20.80;59.50;;;;;;5033234;28;20223;-63
2022/10/31 09:33:53;;;;;;;4.05;3.47;;;20.90;59.60;;;;;;5034567;28;20286;-63
2022/10/31 09:36:40;;;;;;;4.10;3.65;;;20.90;59.30;;;;;;5034226;28;20230;-64
2022/10/31 09:39:13;;;;;;;4.97;3.38;;;20.90;59.10;;;;;;5032923;28;20675;-63
2022/10/31 09:42:11;;;;;;;3.97;3.03;;;20.90;59.10;;;;;;5058924;22;20278;-69
2022/10/31 09:44:48;;;;;;;4.07;3.42;;;20.90;59.10;;;;;;5050299;22;20232;-69
2022/10/31 09:50:27;;;;;;;5.40;3.25;;;20.90;58.60;;;;;;5060948;22;20238;-67
2022/10/31 09:53:01;;;;;;;3.75;3.10;;;21.00;58.80;;;;;;5095898;22;20573;-69
2022/10/31 09:55:31;;;;;;;3.90;3.50;;;21.00;58.70;;;;;;5081912;22;20289;-64
2022/10/31 09:57:59;;;;;;;3.30;3.00;;;21.00;58.80;;;;;;5032767;28;20196;-64
2022/10/31 10:00:26;;;;;;;3.63;3.30;;;21.00;59.00;;;;;;5033627;28;20214;-65
2022/10/31 10:02:58;;;;;;;3.38;3.08;;;21.00;58.90;;;;;;5033523;28;20227;-64
2022/10/31 10:05:29;;;;;;;3.58;3.15;;;21.00;59.00;;;;;;5032606;28;20243;-64
2022/10/31 10:08:04;;;;;;;3.97;3.33;;;21.00;58.70;;;;;;5032454;28;20184;-64
2022/10/31 10:10:52;;;;;;;3.50;3.20;;;21.10;58.90;;;;;;5033642;28;20194;-64
2022/10/31 10:13:48;;;;;;;4.38;2.95;;;21.10;59.00;;;;;;5032194;28;20283;-64
2022/10/31 10:16:25;;;;;;;6.35;3.33;;;21.10;58.90;;;;;;5033659;28;20730;-64
2022/10/31 10:19:00;;;;;;;3.33;3.03;;;21.10;58.90;;;;;;5032069;28;20223;-63
2022/10/31 10:21:34;;;;;;;4.72;3.22;;;21.10;59.10;;;;;;5032193;28;20184;-64
2022/10/31 10:24:10;;;;;;;3.40;3.10;;;21.10;58.70;;;;;;5033962;28;20230;-64
2022/10/31 10:26:37;;;;;;;3.42;3.13;;;21.10;58.70;;;;;;5033565;28;20196;-64
2022/10/31 10:29:26;;;;;;;3.33;3.03;;;21.20;58.60;;;;;;5033255;28;20211;-64
2022/10/31 10:31:53;;;;;;;3.70;3.20;;;21.20;58.90;;;;;;5032099;28;20670;-65
2022/10/31 10:34:21;;;;;;;3.35;3.05;;;21.20;58.70;;;;;;5031212;28;20203;-64
2022/10/31 10:36:50;;;;;;;4.07;3.38;;;21.20;58.70;;;;;;5031938;28;20196;-64
2022/10/31 10:39:21;;;;;;;3.35;3.03;;;21.20;58.70;;;;;;5031984;28;20224;-64
2022/10/31 10:50:00;;;;;;;3.53;3.22;;;21.20;58.70;;;;;;5069187;22;20243;-68
2022/10/31 10:52:30;;;;;;;3.92;3.03;;;21.20;58.80;;;;;;5032968;28;20744;-68
2022/10/31 10:55:03;;;;;;;5.18;3.20;;;21.30;58.80;;;;;;5032515;28;20211;-68
2022/10/31 10:57:42;;;;;;;4.63;3.08;;;21.30;58.70;;;;;;5032371;28;20704;-68
2022/10/31 11:00:18;;;;;;;4.85;3.05;;;21.20;58.70;;;;;;5017191;28;20204;-68
2022/10/31 11:02:45;;;;;;;3.33;3.03;;;21.20;58.70;;;;;;5032502;28;20279;-68
2022/10/31 11:05:16;;;;;;;4.15;3.20;;;21.20;58.60;;;;;;5034182;28;20196;-69
2022/10/31 11:07:43;;;;;;;4.10;3.10;;;21.20;58.70;;;;;;5048183;22;20318;-67
2022/10/31 11:10:14;;;;;;;4.50;2.90;;;21.20;58.60;;;;;;5032553;28;20562;-67
2022/10/31 11:12:42;;;;;;;4.65;3.25;;;21.20;58.70;;;;;;5032273;28;20544;-67
2022/10/31 11:15:18;;;;;;;3.55;3.03;;;21.20;58.80;;;;;;5032323;28;20200;-67
2022/10/31 11:17:49;;;;;;;3.35;2.88;;;21.20;58.80;;;;;;5032239;28;20224;-67
2022/10/31 11:20:30;;;;;;;5.60;3.30;;;21.20;58.90;;;;;;5034067;28;20195;-67
2022/10/31 11:23:02;;;;;;;4.35;3.15;;;21.20;59.00;;;;;;5032472;28;20249;-67
2022/10/31 11:25:31;;;;;;;2.80;2.60;;;21.20;59.00;;;;;;5033261;28;20215;-67
2022/10/31 11:28:02;;;;;;;3.55;3.17;;;21.20;59.00;;;;;;5032385;28;20291;-67
2022/10/31 11:30:29;;;;;;;3.72;3.25;;;21.20;59.10;;;;;;5049134;22;20236;-69
2022/10/31 11:32:56;;;;;;;3.85;3.45;;;21.20;59.10;;;;;;5034065;28;20192;-70
2022/10/31 11:35:24;;;;;;;3.60;3.13;;;21.30;58.90;;;;;;5033515;28;20581;-70
2022/10/31 11:37:52;;;;;;;4.13;3.13;;;21.30;58.70;;;;;;5032658;28;20216;-70
2022/10/31 11:40:22;;;;;;;4.25;3.20;;;21.40;58.70;;;;;;5083922;22;20258;-67
2022/10/31 11:42:50;;;;;;;3.25;2.90;;;21.40;58.60;;;;;;5032484;28;20223;-67
2022/10/31 11:45:19;;;;;;;4.00;3.08;;;21.40;58.70;;;;;;5033629;28;20188;-67
2022/10/31 11:47:49;;;;;;;3.95;3.10;;;21.40;58.60;;;;;;5036845;28;20693;-66
2022/10/31 11:50:20;;;;;;;4.68;3.60;;;21.40;58.70;;;;;;5035860;28;20196;-67
2022/10/31 11:52:47;;;;;;;3.10;2.80;;;21.40;58.70;;;;;;5035754;28;20212;-67
2022/10/31 11:55:29;;;;;;;4.88;2.80;;;21.50;58.80;;;;;;5035568;28;20196;-67
2022/10/31 11:57:58;;;;;;;3.10;2.75;;;21.50;58.80;;;;;;5035956;28;20231;-67
2022/10/31 12:00:26;;;;;;;4.25;3.15;;;21.50;58.70;;;;;;5037420;28;20584;-66
2022/10/31 12:03:06;;;;;;;4.05;3.00;;;21.50;58.60;;;;;;5037384;28;20196;-66
2022/10/31 12:05:33;;;;;;;3.53;3.10;;;21.50;58.60;;;;;;5039013;28;20195;-66
2022/10/31 12:08:00;;;;;;;3.92;2.97;;;21.60;58.60;;;;;;5037006;28;20220;-66
2022/10/31 12:10:31;;;;;;;3.42;3.00;;;21.60;58.50;;;;;;5035878;28;20228;-66
2022/10/31 12:13:03;;;;;;;3.70;3.03;;;21.60;58.40;;;;;;5035545;28;20204;-66
2022/10/31 12:15:32;;;;;;;3.22;2.92;;;21.60;58.40;;;;;;5036297;28;20192;-66
2022/10/31 12:18:26;;;;;;;2.70;2.50;;;21.60;58.40;;;;;;5035171;28;20224;-66
2022/10/31 12:21:03;;;;;;;3.80;3.15;;;21.70;58.30;;;;;;5035252;28;20204;-66
2022/10/31 12:23:35;;;;;;;3.22;2.85;;;21.60;58.30;;;;;;5036362;28;20234;-66
2022/10/31 12:26:10;;;;;;;3.20;2.90;;;21.60;58.30;;;;;;5035053;28;20212;-66
2022/10/31 12:29:01;;;;;;;4.25;3.13;;;21.70;58.40;;;;;;5035213;28;20589;-66
2022/10/31 12:31:43;;;;;;;3.28;3.08;;;21.70;58.60;;;;;;5034783;28;20192;-66
2022/10/31 12:34:33;;;;;;;3.10;2.83;;;21.70;58.50;;;;;;5036161;28;20177;-66
2022/10/31 12:37:02;;;;;;;3.40;2.60;;;21.70;58.40;;;;;;5034566;28;20211;-66
2022/10/31 12:39:35;;;;;;;3.85;3.00;;;21.70;58.40;;;;;;5035960;28;20219;-66
2022/10/31 12:42:06;;;;;;;3.08;2.72;;;21.70;58.40;;;;;;5035997;28;20227;-66
2022/10/31 12:45:03;;;;;;;3.03;2.72;;;21.70;58.50;;;;;;5034298;28;20275;-66
2022/10/31 12:47:39;;;;;;;3.05;2.78;;;21.70;58.50;;;;;;5035372;28;20227;-66
2022/10/31 12:50:16;;;;;;;4.63;3.42;;;21.60;58.40;;;;;;5034305;28;20192;-66
2022/10/31 12:52:49;;;;;;;2.97;2.75;;;21.60;58.50;;;;;;5035978;28;20184;-66
2022/10/31 12:55:35;;;;;;;4.40;2.85;;;21.60;58.60;;;;;;5034239;28;20279;-66
2022/10/31 12:58:03;;;;;;;4.20;3.03;;;21.60;58.60;;;;;;5034471;28;20208;-66
2022/10/31 13:00:32;;;;;;;3.30;3.00;;;21.60;58.60;;;;;;5034009;28;20196;-66
2022/10/31 13:03:01;;;;;;;3.33;3.03;;;21.60;58.70;;;;;;5034074;28;20232;-66
2022/10/31 13:05:30;;;;;;;3.33;3.00;;;21.60;58.70;;;;;;5034392;28;20242;-66
2022/10/31 13:07:59;;;;;;;3.00;2.70;;;21.50;58.60;;;;;;5034030;28;20227;-66
2022/10/31 13:10:27;;;;;;;3.30;3.00;;;21.50;58.70;;;;;;5034351;28;20189;-66
2022/10/31 13:12:56;;;;;;;2.90;2.70;;;21.50;58.70;;;;;;5033865;28;20200;-66
2022/10/31 13:15:24;;;;;;;2.95;2.75;;;21.50;58.80;;;;;;5036489;28;20539;-66
2022/10/31 13:17:54;;;;;;;3.75;3.35;;;21.50;58.90;;;;;;5035176;28;20634;-67
2022/10/31 13:20:24;;;;;;;3.53;2.70;;;21.50;58.90;;;;;;5034329;28;20207;-67
2022/10/31 13:22:54;;;;;;;3.20;2.60;;;21.50;58.90;;;;;;5033810;28;20196;-66
2022/10/31 13:25:24;;;;;;;2.90;2.47;;;21.50;59.00;;;;;;5033850;28;20195;-66
2022/10/31 13:27:54;;;;;;;3.35;3.05;;;21.50;59.00;;;;;;5033748;28;20227;-66
2022/10/31 13:30:22;;;;;;;2.95;2.75;;;21.40;59.00;;;;;;5034518;28;20258;-66
2022/10/31 13:32:51;;;;;;;2.92;2.63;;;21.50;59.10;;;;;;5033885;28;20208;-67